Time;durP1;ratioP1;P1;durP2;ratioP2;P2;SDS_P1;SDS_P2;PMS_P1;PMS_P2;Temp;Humidity;BMP_temperature;BMP_pressure;BME280_temperature;BME280_humidity;BME280_pressure;Samples;Min_cycle;Max_cycle;Signal;HPM_P1;HPM_P2
2022/05/07 00:00:33;;;;;;;24.95;12.82;;;;;;;10.58;91.17;100617.13;5083871;28;20341;-69
2022/05/07 00:02:58;;;;;;;23.42;11.43;;;;;;;10.56;91.24;100616.25;5083752;28;20431;-69
2022/05/07 00:05:24;;;;;;;26.17;13.52;;;;;;;10.53;91.64;100617.13;5083877;28;20100;-69
2022/05/07 00:07:50;;;;;;;22.92;13.18;;;;;;;10.52;91.84;100609.34;5083901;28;20031;-69
2022/05/07 00:10:16;;;;;;;22.38;11.68;;;;;;;10.51;92.15;100607.66;5065572;28;20166;-68
2022/05/07 00:12:41;;;;;;;28.05;14.52;;;;;;;10.52;92.10;100604.16;5083468;28;20200;-69
2022/05/07 00:15:08;;;;;;;21.50;12.02;;;;;;;10.50;92.39;100603.31;5083452;28;20028;-68
2022/05/07 00:20:17;;;;;;;27.63;14.73;;;;;;;10.46;92.58;100609.34;5083676;28;20035;-68
2022/05/07 00:22:43;;;;;;;24.95;12.68;;;;;;;10.46;92.79;100604.16;5083151;28;20033;-68
2022/05/07 00:25:09;;;;;;;32.25;15.13;;;;;;;10.49;92.79;100599.00;5083536;28;20024;-68
2022/05/07 00:27:34;;;;;;;26.58;14.10;;;;;;;10.46;92.70;100598.97;5083335;28;20053;-68
2022/05/07 00:29:59;;;;;;;23.10;13.40;;;;;;;10.45;92.96;100598.09;5083043;28;20066;-68
2022/05/07 00:32:25;;;;;;;30.13;15.38;;;;;;;10.44;93.04;100598.97;5083250;28;20023;-68
2022/05/07 00:34:50;;;;;;;31.63;16.73;;;;;;;10.46;93.14;100602.47;5083252;28;20013;-68
2022/05/07 00:37:15;;;;;;;31.67;15.65;;;;;;;10.45;93.01;100594.66;5083085;28;20048;-68
2022/05/07 00:39:41;;;;;;;37.03;20.48;;;;;;;10.45;92.93;100592.91;5082385;28;20054;-67
2022/05/07 00:42:07;;;;;;;42.05;20.77;;;;;;;10.47;93.16;100598.13;5064999;28;20025;-68
2022/05/07 00:44:33;;;;;;;32.38;18.10;;;;;;;10.47;92.93;100591.22;5082773;28;20035;-66
2022/05/07 00:47:04;;;;;;;37.17;20.05;;;;;;;10.48;92.88;100589.50;5082971;28;20028;-66
2022/05/07 00:49:29;;;;;;;33.55;19.60;;;;;;;10.46;92.68;100586.00;5082908;28;20035;-66
2022/05/07 00:51:55;;;;;;;36.10;20.13;;;;;;;10.45;92.92;100592.06;5082928;28;20109;-66
2022/05/07 00:54:23;;;;;;;28.08;18.27;;;;;;;10.45;92.95;100592.91;5083084;28;20452;-65
2022/05/07 00:56:48;;;;;;;34.08;19.63;;;;;;;10.46;93.04;100593.78;5064985;28;20016;-65
2022/05/07 00:59:13;;;;;;;32.33;17.42;;;;;;;10.46;93.09;100586.00;5082691;28;20499;-64
2022/05/07 01:01:40;;;;;;;37.92;22.52;;;;;;;10.49;92.73;100593.81;5083101;28;20020;-64
2022/05/07 01:04:06;;;;;;;29.38;16.92;;;;;;;10.49;92.96;100588.59;5082893;28;20020;-64
2022/05/07 01:06:31;;;;;;;35.45;22.30;;;;;;;10.49;93.01;100583.41;5082755;28;20031;-65
2022/05/07 01:08:57;;;;;;;40.15;25.05;;;;;;;10.49;92.93;100586.00;5082690;28;20020;-64
2022/05/07 01:11:24;;;;;;;39.88;24.60;;;;;;;10.46;92.83;100579.13;5082876;28;20032;-63
2022/05/07 01:13:51;;;;;;;39.78;23.42;;;;;;;10.50;92.98;100587.72;5082663;28;20020;-64
2022/05/07 01:16:16;;;;;;;34.78;22.60;;;;;;;10.45;92.59;100586.88;5082508;28;20055;-64
2022/05/07 01:18:42;;;;;;;36.88;22.27;;;;;;;10.41;92.57;100576.47;5082505;28;20029;-63
2022/05/07 01:21:12;;;;;;;34.05;20.63;;;;;;;10.41;92.89;100584.25;5082755;28;20020;-64
2022/05/07 01:23:41;;;;;;;33.67;21.05;;;;;;;10.37;92.81;100574.78;5082845;28;20515;-64
2022/05/07 01:26:06;;;;;;;28.58;18.92;;;;;;;10.38;93.07;100589.47;5082609;28;20499;-64
2022/05/07 01:28:32;;;;;;;27.20;16.50;;;;;;;10.37;92.83;100582.56;5082468;28;20025;-64
2022/05/07 01:30:57;;;;;;;30.90;19.15;;;;;;;10.33;93.03;100586.06;5082398;28;20020;-64
2022/05/07 01:33:23;;;;;;;31.70;18.63;;;;;;;10.36;92.85;100578.25;5082521;28;20023;-65
2022/05/07 01:35:49;;;;;;;29.88;17.98;;;;;;;10.44;92.56;100582.53;5082204;28;20105;-66
2022/05/07 01:38:14;;;;;;;25.77;15.68;;;;;;;10.39;92.92;100585.16;5082426;28;20033;-66
2022/05/07 01:40:39;;;;;;;24.33;15.10;;;;;;;10.33;92.68;100583.47;5082525;28;20468;-67
2022/05/07 01:43:05;;;;;;;16.02;10.15;;;;;;;10.33;92.13;100588.66;5082639;28;20021;-67
2022/05/07 01:45:31;;;;;;;15.38;9.15;;;;;;;10.26;92.32;100587.81;5082171;28;20468;-66
2022/05/07 01:48:11;;;;;;;11.35;5.97;;;;;;;10.25;92.18;100588.69;5082586;28;20031;-67
2022/05/07 01:50:38;;;;;;;10.10;4.85;;;;;;;10.15;91.75;100585.25;5083509;28;20029;-66
2022/05/07 01:53:05;;;;;;;11.48;5.57;;;;;;;10.11;91.56;100583.53;5086383;28;20016;-67
2022/05/07 01:55:32;;;;;;;8.20;5.28;;;;;;;10.09;91.89;100574.91;5086072;28;20072;-67
2022/05/07 01:57:58;;;;;;;10.13;5.20;;;;;;;10.06;92.07;100581.84;5068177;28;20025;-67
2022/05/07 02:00:23;;;;;;;11.32;4.97;;;;;;;10.04;91.82;100587.03;5085839;28;20055;-67
2022/05/07 02:02:48;;;;;;;9.13;5.15;;;;;;;10.02;91.86;100580.97;5085963;28;20024;-67
2022/05/07 02:05:14;;;;;;;4.25;2.35;;;;;;;9.92;91.61;100568.03;5085989;28;20035;-66
2022/05/07 02:07:39;;;;;;;9.48;3.22;;;;;;;9.88;91.70;100576.72;5086087;28;20370;-66
2022/05/07 02:10:05;;;;;;;12.40;3.63;;;;;;;9.83;91.64;100575.84;5086109;28;20028;-66
2022/05/07 02:12:30;;;;;;;6.43;2.45;;;;;;;9.83;91.76;100582.75;5086025;28;20028;-66
2022/05/07 02:14:55;;;;;;;11.05;4.38;;;;;;;9.82;91.83;100575.84;5085497;28;20515;-66
2022/05/07 02:17:21;;;;;;;7.03;3.95;;;;;;;9.81;91.52;100580.16;5085690;28;20024;-66
2022/05/07 02:19:46;;;;;;;9.38;3.90;;;;;;;9.81;91.39;100574.13;5085649;28;20036;-67
2022/05/07 02:22:11;;;;;;;7.60;3.38;;;;;;;9.79;91.52;100584.50;5085840;28;20122;-67
2022/05/07 02:24:37;;;;;;;9.30;3.58;;;;;;;9.81;91.60;100582.75;5085618;28;20104;-66
2022/05/07 02:27:03;;;;;;;12.93;4.00;;;;;;;9.82;91.96;100571.53;5085659;28;20032;-67
2022/05/07 02:29:28;;;;;;;8.10;3.70;;;;;;;9.79;91.69;100566.38;5085334;28;20115;-67
2022/05/07 02:32:06;;;;;;;10.27;3.85;;;;;;;9.78;91.41;100573.28;5085798;28;20047;-66
2022/05/07 02:34:36;;;;;;;6.55;3.15;;;;;;;9.80;91.64;100570.69;5085335;28;20016;-66
2022/05/07 02:37:02;;;;;;;7.65;2.78;;;;;;;9.76;91.71;100581.94;5085319;28;20051;-66
2022/05/07 02:39:28;;;;;;;6.28;3.05;;;;;;;9.76;91.66;100561.19;5085181;28;20468;-67
2022/05/07 02:44:37;;;;;;;10.05;3.40;;;;;;;9.72;91.43;100581.06;5085428;28;20032;-66
2022/05/07 02:47:04;;;;;;;9.70;3.40;;;;;;;9.75;91.38;100575.00;5067616;28;20029;-66
2022/05/07 02:49:32;;;;;;;6.28;1.63;;;;;;;9.71;91.60;100561.19;5085340;28;20025;-66
2022/05/07 02:51:57;;;;;;;9.90;3.92;;;;;;;9.72;91.55;100583.66;5085356;28;20096;-67
2022/05/07 02:54:22;;;;;;;9.45;3.30;;;;;;;9.75;91.79;100577.59;5085439;28;20021;-67
2022/05/07 02:56:48;;;;;;;8.18;3.50;;;;;;;9.81;91.61;100579.31;5085427;28;20059;-67
2022/05/07 02:59:13;;;;;;;12.98;3.60;;;;;;;9.71;91.66;100565.50;5085529;28;20012;-66
2022/05/07 03:01:41;;;;;;;7.45;3.17;;;;;;;9.83;91.95;100594.00;5066738;28;20521;-67
2022/05/07 03:04:09;;;;;;;13.40;3.45;;;;;;;9.83;91.64;100588.81;5084834;28;20028;-67
2022/05/07 03:06:35;;;;;;;15.27;3.72;;;;;;;9.85;91.37;100594.00;5084926;28;20100;-66
2022/05/07 03:09:01;;;;;;;10.50;3.58;;;;;;;9.79;91.41;100587.94;5084989;28;20020;-66
2022/05/07 03:11:27;;;;;;;16.33;4.07;;;;;;;9.77;91.23;100594.91;5084819;28;20054;-67
2022/05/07 03:13:52;;;;;;;11.30;4.43;;;;;;;9.82;91.48;100596.59;5085116;28;20120;-67
2022/05/07 03:16:17;;;;;;;14.95;3.13;;;;;;;9.86;90.96;100599.19;5085026;28;20025;-67
2022/05/07 03:18:43;;;;;;;9.15;2.78;;;;;;;9.81;91.26;100600.06;5085220;28;20021;-66
2022/05/07 03:21:08;;;;;;;10.80;3.50;;;;;;;9.78;91.26;100603.50;5084813;28;20021;-66
2022/05/07 03:23:34;;;;;;;9.20;3.10;;;;;;;9.76;91.12;100605.25;5084935;28;20032;-66
2022/05/07 03:25:59;;;;;;;8.77;2.85;;;;;;;9.73;90.87;100603.53;5084932;28;20076;-66
2022/05/07 03:28:24;;;;;;;9.13;2.67;;;;;;;9.70;90.60;100613.91;5084719;28;20356;-66
2022/05/07 03:30:50;;;;;;;10.45;3.83;;;;;;;9.72;90.58;100617.38;5084825;28;20048;-67
2022/05/07 03:33:15;;;;;;;10.18;3.00;;;;;;;9.67;90.78;100611.31;5084854;28;20519;-66
2022/05/07 03:35:40;;;;;;;8.32;3.85;;;;;;;9.67;90.66;100614.78;5084477;28;20179;-67
2022/05/07 03:38:06;;;;;;;8.88;3.80;;;;;;;9.71;90.10;100615.66;5084801;28;20040;-67
2022/05/07 03:40:32;;;;;;;9.02;3.70;;;;;;;9.66;90.23;100613.03;5084740;28;20020;-67
2022/05/07 03:42:58;;;;;;;14.18;3.70;;;;;;;9.67;90.19;100614.78;5066469;28;20051;-67
2022/05/07 03:45:24;;;;;;;8.32;3.15;;;;;;;9.63;90.18;100612.19;5084562;28;20074;-66
2022/05/07 03:47:49;;;;;;;9.15;3.33;;;;;;;9.64;89.99;100616.50;5084458;28;20028;-65
2022/05/07 03:50:15;;;;;;;10.38;3.85;;;;;;;9.60;89.91;100618.22;5066395;28;20476;-65
2022/05/07 03:55:24;;;;;;;8.40;4.03;;;;;;;9.56;90.05;100613.91;5084294;28;20024;-66
2022/05/07 03:57:50;;;;;;;15.68;4.63;;;;;;;9.56;89.92;100616.50;5084235;28;20024;-66
2022/05/07 04:00:15;;;;;;;12.90;4.50;;;;;;;9.55;89.87;100607.88;5084297;28;20028;-66
2022/05/07 04:02:41;;;;;;;10.27;4.25;;;;;;;9.61;89.95;100619.97;5084444;28;20472;-66
2022/05/07 04:05:06;;;;;;;12.80;3.83;;;;;;;9.61;89.99;100614.78;5084141;28;20436;-67
2022/05/07 04:07:32;;;;;;;17.27;4.78;;;;;;;9.59;89.73;100621.69;5084120;28;20031;-66
2022/05/07 04:09:57;;;;;;;11.35;4.28;;;;;;;9.59;89.61;100621.69;5083865;28;20083;-67
2022/05/07 04:12:23;;;;;;;8.57;4.13;;;;;;;9.64;89.75;100625.16;5084023;28;20083;-66
2022/05/07 04:14:48;;;;;;;14.95;4.45;;;;;;;9.65;89.43;100626.88;5083451;28;20017;-66
2022/05/07 04:17:13;;;;;;;11.18;4.72;;;;;;;9.58;89.86;100625.16;5083362;28;20028;-68
2022/05/07 04:19:39;;;;;;;8.93;3.97;;;;;;;9.65;89.55;100633.78;5065140;28;20020;-66
2022/05/07 04:22:05;;;;;;;16.38;4.38;;;;;;;9.70;89.79;100626.88;5083477;28;20060;-66
2022/05/07 04:24:33;;;;;;;14.65;4.07;;;;;;;9.75;88.97;100632.91;5083483;28;20099;-66
2022/05/07 04:26:59;;;;;;;15.13;4.18;;;;;;;9.67;89.13;100630.34;5083380;28;20032;-66
2022/05/07 04:29:24;;;;;;;10.77;4.13;;;;;;;9.65;89.30;100634.66;5082934;28;20029;-66
2022/05/07 04:31:49;;;;;;;14.50;4.43;;;;;;;9.72;89.61;100634.63;5083450;28;20040;-66
2022/05/07 04:34:14;;;;;;;25.20;5.55;;;;;;;9.72;88.73;100639.81;5083046;28;20043;-65
2022/05/07 04:36:40;;;;;;;17.92;5.45;;;;;;;9.75;88.74;100647.59;5082768;28;20051;-66
2022/05/07 04:39:05;;;;;;;20.05;5.80;;;;;;;9.78;88.85;100642.41;5082759;28;20025;-66
2022/05/07 04:41:31;;;;;;;19.75;6.05;;;;;;;9.77;88.37;100641.56;5082883;28;20024;-66
2022/05/07 04:43:56;;;;;;;15.70;5.15;;;;;;;9.80;88.16;100643.28;5083012;28;20444;-66
2022/05/07 04:46:21;;;;;;;16.15;5.10;;;;;;;9.79;87.62;100646.75;5082834;28;20017;-66
2022/05/07 04:48:47;;;;;;;17.45;5.20;;;;;;;9.75;87.56;100645.00;5082782;28;20231;-66
2022/05/07 04:51:12;;;;;;;23.00;6.35;;;;;;;9.70;87.40;100652.78;5082875;28;20084;-66
2022/05/07 04:53:37;;;;;;;27.08;6.80;;;;;;;9.70;87.25;100654.50;5082832;28;20028;-66
2022/05/07 04:56:03;;;;;;;23.35;6.90;;;;;;;9.73;86.98;100651.94;5064591;28;20058;-66
2022/05/07 04:58:29;;;;;;;29.30;7.55;;;;;;;9.64;86.49;100656.25;5082763;28;20043;-65
2022/05/07 05:00:54;;;;;;;22.65;6.47;;;;;;;9.66;86.96;100664.03;5082956;28;20025;-66
2022/05/07 05:03:20;;;;;;;26.55;7.53;;;;;;;9.72;87.21;100657.97;5082714;28;20020;-66
2022/05/07 05:05:45;;;;;;;26.35;6.32;;;;;;;9.73;86.75;100660.56;5082780;28;20020;-66
2022/05/07 05:08:10;;;;;;;22.17;7.00;;;;;;;9.74;86.65;100646.75;5082822;28;20093;-67
2022/05/07 05:10:36;;;;;;;23.92;5.78;;;;;;;9.83;86.34;100660.53;5082930;28;20048;-66
2022/05/07 05:13:01;;;;;;;23.63;7.55;;;;;;;9.84;85.93;100660.53;5082640;28;20066;-67
2022/05/07 05:15:27;;;;;;;23.20;6.95;;;;;;;9.81;85.97;100654.53;5082195;28;20035;-66
2022/05/07 05:17:52;;;;;;;23.42;6.28;;;;;;;9.88;85.37;100654.50;5082562;28;20035;-70
2022/05/07 05:20:18;;;;;;;22.88;6.07;;;;;;;9.81;85.57;100657.13;5082629;28;20020;-66
2022/05/07 05:22:48;;;;;;;24.60;6.40;;;;;;;9.82;85.36;100662.28;5082401;28;20360;-66
2022/05/07 05:25:14;;;;;;;19.90;6.13;;;;;;;9.84;85.40;100651.94;5083097;28;20020;-67
2022/05/07 05:27:39;;;;;;;23.02;6.10;;;;;;;9.94;85.07;100657.94;5086799;28;20074;-66
2022/05/07 05:30:05;;;;;;;18.00;6.10;;;;;;;10.00;85.70;100663.97;5086556;28;20028;-65
2022/05/07 05:32:31;;;;;;;23.77;7.00;;;;;;;10.19;85.67;100669.16;5086595;28;20020;-68
2022/05/07 05:34:56;;;;;;;17.70;5.88;;;;;;;10.28;85.64;100658.75;5086482;28;20029;-67
2022/05/07 05:37:21;;;;;;;19.92;6.70;;;;;;;10.35;85.09;100669.94;5086353;28;20084;-67
2022/05/07 05:39:47;;;;;;;25.92;7.15;;;;;;;10.33;84.21;100671.69;5086789;28;20412;-68
2022/05/07 05:42:13;;;;;;;17.60;6.72;;;;;;;10.34;84.33;100677.72;5086549;28;20032;-68
2022/05/07 05:44:40;;;;;;;19.50;5.05;;;;;;;10.36;83.96;100670.81;5086150;28;20511;-69
2022/05/07 05:47:06;;;;;;;19.85;5.97;;;;;;;10.37;83.88;100670.81;5086390;28;20455;-68
2022/05/07 05:49:33;;;;;;;17.58;5.30;;;;;;;10.30;83.73;100663.94;5086141;28;20055;-67
2022/05/07 05:52:00;;;;;;;21.48;6.75;;;;;;;10.34;83.43;100683.78;5086010;28;20551;-68
2022/05/07 05:54:26;;;;;;;23.30;6.78;;;;;;;10.36;83.00;100686.38;5086017;28;20025;-68
2022/05/07 05:56:51;;;;;;;22.85;6.28;;;;;;;10.38;83.37;100679.47;5086164;28;20155;-67
2022/05/07 05:59:17;;;;;;;17.42;4.43;;;;;;;10.35;82.94;100693.31;5085804;28;20078;-67
2022/05/07 06:01:42;;;;;;;23.48;7.13;;;;;;;10.29;82.63;100689.00;5086006;28;20347;-68
2022/05/07 06:04:07;;;;;;;19.90;5.50;;;;;;;10.26;82.30;100688.13;5086128;28;20040;-67
2022/05/07 06:06:32;;;;;;;17.45;5.55;;;;;;;10.27;82.59;100677.75;5085992;28;20107;-67
2022/05/07 06:08:58;;;;;;;26.67;6.65;;;;;;;10.35;82.37;100680.31;5085630;28;20046;-67
2022/05/07 06:11:23;;;;;;;21.90;6.25;;;;;;;10.50;81.95;100681.19;5085899;28;20021;-67
2022/05/07 06:13:48;;;;;;;22.33;7.20;;;;;;;10.45;81.76;100680.31;5085615;28;20028;-67
2022/05/07 06:16:14;;;;;;;26.67;6.80;;;;;;;10.44;81.72;100686.38;5085873;28;20051;-67
2022/05/07 06:18:40;;;;;;;30.13;7.43;;;;;;;10.46;81.95;100695.91;5086057;28;20031;-67
2022/05/07 06:21:05;;;;;;;27.55;6.97;;;;;;;10.49;81.85;100689.84;5086254;28;20107;-67
2022/05/07 06:23:31;;;;;;;22.70;6.47;;;;;;;10.52;81.82;100695.03;5085859;28;20029;-66
2022/05/07 06:28:41;;;;;;;18.83;5.65;;;;;;;10.59;80.67;100677.69;5085835;28;20038;-68
2022/05/07 06:31:07;;;;;;;21.15;6.60;;;;;;;10.59;80.71;100688.94;5086048;28;20052;-67
2022/05/07 06:33:32;;;;;;;21.90;7.03;;;;;;;10.55;81.05;100679.44;5085786;28;20372;-67
2022/05/07 06:35:58;;;;;;;24.98;6.55;;;;;;;10.65;81.38;100694.09;5067558;28;20033;-67
2022/05/07 06:38:23;;;;;;;18.80;7.07;;;;;;;10.72;81.12;100678.50;5084488;28;20024;-68
2022/05/07 06:40:50;;;;;;;19.85;5.40;;;;;;;10.91;80.98;100694.84;5085708;28;20048;-67
2022/05/07 06:43:16;;;;;;;14.60;5.57;;;;;;;10.93;80.50;100703.50;5067822;28;20043;-68
2022/05/07 06:45:41;;;;;;;24.10;6.07;;;;;;;11.05;80.94;100701.72;5085688;28;20472;-68
2022/05/07 06:48:11;;;;;;;19.85;5.93;;;;;;;11.10;80.63;100697.34;5085500;28;20024;-68
2022/05/07 06:50:37;;;;;;;17.15;6.45;;;;;;;11.19;80.23;100714.63;5085647;28;20024;-69
2022/05/07 06:53:02;;;;;;;18.40;6.13;;;;;;;11.30;80.31;100714.53;5085744;28;20084;-68
2022/05/07 06:55:31;;;;;;;16.42;5.10;;;;;;;11.36;79.66;100699.78;5085669;28;20020;-68
2022/05/07 06:57:58;;;;;;;18.77;5.68;;;;;;;11.51;79.64;100711.81;5085615;28;20032;-67
2022/05/07 07:00:24;;;;;;;16.52;5.32;;;;;;;11.63;79.46;100722.97;5085415;28;20027;-70
2022/05/07 07:02:50;;;;;;;14.52;4.10;;;;;;;11.75;78.91;100724.63;5084972;28;20031;-74
2022/05/07 07:05:15;;;;;;;14.13;4.50;;;;;;;11.80;78.58;100728.06;5085158;28;20096;-75
2022/05/07 07:07:40;;;;;;;12.07;4.35;;;;;;;11.87;77.97;100714.13;5085041;28;20669;-64
2022/05/07 07:10:06;;;;;;;14.10;4.90;;;;;;;11.93;77.55;100715.81;5085195;28;20039;-66
2022/05/07 07:12:32;;;;;;;13.80;4.10;;;;;;;12.03;77.64;100713.97;5085415;28;20089;-66
2022/05/07 07:14:57;;;;;;;18.25;4.60;;;;;;;11.99;77.11;100707.06;5084929;28;20512;-66
2022/05/07 07:17:25;;;;;;;16.42;4.28;;;;;;;12.12;77.01;100724.31;5085051;28;20027;-65
2022/05/07 07:19:51;;;;;;;12.25;4.18;;;;;;;12.11;75.89;100725.19;5084746;28;20077;-67
2022/05/07 07:22:16;;;;;;;13.07;4.10;;;;;;;12.08;75.80;100724.38;5085055;28;20033;-67
2022/05/07 07:24:42;;;;;;;11.77;4.60;;;;;;;12.02;75.56;100720.94;5067197;28;20032;-67
2022/05/07 07:27:08;;;;;;;14.85;4.30;;;;;;;11.98;75.35;100731.38;5084889;28;20028;-67
2022/05/07 07:29:34;;;;;;;18.00;5.13;;;;;;;11.90;75.72;100728.84;5084480;28;20024;-66
2022/05/07 07:31:59;;;;;;;12.30;4.32;;;;;;;11.78;75.32;100720.28;5066632;28;20050;-67
2022/05/07 07:34:25;;;;;;;10.05;2.53;;;;;;;11.71;74.72;100702.97;5084549;28;20059;-69
2022/05/07 07:36:50;;;;;;;9.50;3.42;;;;;;;11.59;75.19;100732.56;5084541;28;20131;-67
2022/05/07 07:39:17;;;;;;;15.23;4.60;;;;;;;11.40;75.24;100724.91;5084525;28;20031;-67
2022/05/07 07:41:43;;;;;;;15.10;4.50;;;;;;;11.45;75.91;100743.06;5066261;28;20092;-66
2022/05/07 07:44:09;;;;;;;14.02;4.80;;;;;;;11.61;75.74;100740.34;5084754;28;20093;-67
2022/05/07 07:49:19;;;;;;;10.13;3.15;;;;;;;11.62;74.99;100713.47;5084402;28;20036;-67
2022/05/07 07:51:44;;;;;;;14.02;5.43;;;;;;;11.92;74.78;100729.69;5084349;28;20017;-69
2022/05/07 07:54:09;;;;;;;15.52;4.28;;;;;;;12.09;74.06;100739.97;5084347;28;20035;-67
2022/05/07 07:56:35;;;;;;;12.27;4.18;;;;;;;12.14;73.49;100743.38;5084320;28;20027;-67
2022/05/07 07:59:00;;;;;;;10.60;3.83;;;;;;;12.30;73.29;100748.44;5084115;28;20024;-66
2022/05/07 08:01:26;;;;;;;8.65;3.17;;;;;;;12.51;72.88;100747.34;5066050;28;20213;-67
2022/05/07 08:03:51;;;;;;;12.38;4.10;;;;;;;12.54;72.54;100756.88;5084096;28;20016;-66
2022/05/07 08:06:16;;;;;;;12.10;3.92;;;;;;;12.49;72.49;100751.72;5084136;28;20062;-67
2022/05/07 08:11:41;;;;;;;15.80;4.30;;;;;;;12.63;71.88;100756.78;5083876;28;20040;-67
2022/05/07 08:14:13;;;;;;;16.15;4.13;;;;;;;12.61;72.13;100757.66;5083969;28;20079;-67
2022/05/07 08:16:39;;;;;;;;;;;;;;;12.89;71.43;100755.59;5084274;28;20036;-67
2022/05/07 08:19:04;;;;;;;16.80;4.00;;;;;;;13.09;71.20;100757.09;5083602;28;19909;-65
2022/05/07 08:21:29;;;;;;;19.13;3.67;;;;;;;13.11;70.56;100752.75;5083750;28;20045;-68
2022/05/07 08:23:55;;;;;;;16.45;5.72;;;;;;;13.14;70.34;100754.44;5083904;28;20027;-67
2022/05/07 08:26:21;;;;;;;12.43;3.88;;;;;;;13.33;70.51;100749.81;5083716;28;20392;-67
2022/05/07 08:28:47;;;;;;;14.38;3.55;;;;;;;13.60;70.12;100752.06;5083721;28;20061;-67
2022/05/07 08:31:13;;;;;;;10.90;3.22;;;;;;;13.73;68.25;100758.81;5083336;28;20025;-67
2022/05/07 08:33:41;;;;;;;13.52;4.03;;;;;;;13.87;67.86;100758.59;5083905;28;20016;-67
2022/05/07 08:36:07;;;;;;;14.10;3.67;;;;;;;13.93;67.46;100762.00;5083165;28;20048;-67
2022/05/07 08:38:32;;;;;;;10.25;3.30;;;;;;;14.02;66.92;100753.13;5083434;28;20031;-67
2022/05/07 08:41:01;;;;;;;12.82;3.40;;;;;;;14.28;66.68;100763.09;5083458;28;20021;-67
2022/05/07 08:43:32;;;;;;;8.93;3.63;;;;;;;14.74;65.89;100765.75;5083488;28;20033;-67
2022/05/07 08:45:58;;;;;;;11.55;3.50;;;;;;;14.81;63.63;100763.91;5083171;28;20045;-67
2022/05/07 08:48:24;;;;;;;10.70;3.20;;;;;;;15.14;63.17;100764.09;5083447;28;20031;-68
2022/05/07 08:50:53;;;;;;;13.38;3.55;;;;;;;15.47;61.88;100763.34;5083344;28;20046;-67
2022/05/07 08:53:20;;;;;;;7.70;3.50;;;;;;;15.59;60.80;100755.19;5083433;28;20036;-68
2022/05/07 08:55:51;;;;;;;12.40;3.97;;;;;;;15.73;61.24;100759.25;5083242;28;20020;-67
2022/05/07 08:58:16;;;;;;;23.67;4.18;;;;;;;15.96;59.59;100768.28;5083587;28;20059;-68
2022/05/07 09:00:45;;;;;;;11.88;3.60;;;;;;;15.96;59.40;100769.16;5082637;28;20024;-67
2022/05/07 09:03:15;;;;;;;10.32;3.17;;;;;;;16.19;59.02;100769.47;5083407;28;20382;-68
2022/05/07 09:05:41;;;;;;;12.20;4.28;;;;;;;16.33;58.62;100775.22;5083339;28;20017;-67
2022/05/07 09:08:07;;;;;;;11.10;3.67;;;;;;;16.48;58.16;100773.94;5083686;28;20029;-67
2022/05/07 09:10:34;;;;;;;16.02;4.68;;;;;;;16.84;57.07;100778.19;5083084;28;20494;-67
2022/05/07 09:13:14;;;;;;;12.60;3.53;;;;;;;16.81;55.63;100775.66;5083262;28;20031;-67
2022/05/07 09:15:54;;;;;;;10.00;3.40;;;;;;;16.95;56.31;100759.53;5082798;28;20013;-68
2022/05/07 09:18:22;;;;;;;10.30;3.75;;;;;;;16.98;55.06;100769.91;5083528;28;20020;-67
2022/05/07 09:21:16;;;;;;;16.67;3.35;;;;;;;17.12;55.31;100776.56;5083181;28;20127;-67
2022/05/07 09:23:59;;;;;;;11.90;3.35;;;;;;;17.23;54.81;100781.47;5083239;28;20052;-66
2022/05/07 09:26:30;;;;;;;15.10;3.58;;;;;;;17.39;53.50;100779.25;5083170;28;20023;-67
2022/05/07 09:28:57;;;;;;;12.02;4.95;;;;;;;17.57;53.34;100775.16;5083043;28;20029;-67
2022/05/07 09:31:30;;;;;;;17.20;3.97;;;;;;;17.46;53.50;100779.91;5083058;28;20028;-67
2022/05/07 09:35:47;;;;;;;8.98;3.13;;;;;;;17.80;52.84;100773.56;5065373;28;20020;-67
2022/05/07 09:36:43;;;;;;;15.85;3.05;;;;;;;18.03;50.48;100774.59;5082420;28;20058;-68
2022/05/07 09:39:11;;;;;;;12.50;3.30;;;;;;;18.11;50.48;100769.06;5082711;28;20032;-67
2022/05/07 09:41:37;;;;;;;16.85;4.13;;;;;;;18.41;50.23;100760.19;5082528;28;20080;-68
2022/05/07 09:44:03;;;;;;;13.68;3.13;;;;;;;19.04;49.20;100772.75;5082143;28;20100;-68
2022/05/07 09:46:30;;;;;;;15.05;3.28;;;;;;;19.08;48.27;100765.63;5082332;28;20044;-67
2022/05/07 09:48:59;;;;;;;16.95;3.75;;;;;;;19.32;48.15;100770.88;5082292;28;20020;-66
2022/05/07 09:51:25;;;;;;;15.63;3.40;;;;;;;19.92;46.33;100777.28;5082437;28;20154;-68
2022/05/07 09:59:19;;;;;;;11.77;3.33;;;;;;;20.97;43.74;100778.06;5082359;28;20035;-68
2022/05/07 10:02:27;;;;;;;12.73;3.60;;;;;;;21.60;43.50;100773.34;5082054;28;20044;-67
2022/05/07 10:05:20;;;;;;;14.35;3.60;;;;;;;21.76;41.09;100784.84;5055842;28;20029;-67
2022/05/07 10:08:10;;;;;;;11.55;3.05;;;;;;;21.75;40.51;100764.66;5082288;28;20047;-67
2022/05/07 10:10:38;;;;;;;17.83;3.40;;;;;;;21.56;40.58;100767.34;5082106;28;20055;-67
2022/05/07 10:13:08;;;;;;;12.52;3.10;;;;;;;21.40;40.75;100775.16;5085413;28;20024;-67
2022/05/07 10:15:33;;;;;;;10.65;3.17;;;;;;;21.22;40.68;100776.88;5067245;28;20035;-67
2022/05/07 10:18:02;;;;;;;15.50;3.60;;;;;;;21.37;41.33;100775.31;5085632;28;20024;-67
2022/05/07 10:20:44;;;;;;;11.98;3.95;;;;;;;21.71;40.62;100778.09;5067473;28;20059;-68
2022/05/07 10:23:15;;;;;;;9.90;2.67;;;;;;;21.72;39.76;100777.16;5085403;28;20025;-67
2022/05/07 10:25:45;;;;;;;12.85;4.03;;;;;;;21.25;40.15;100777.59;5085434;28;20025;-69
2022/05/07 10:28:14;;;;;;;12.45;3.55;;;;;;;20.45;41.45;100782.94;5085501;28;20028;-67
2022/05/07 10:30:50;;;;;;;11.50;3.13;;;;;;;20.35;41.22;100787.75;5085105;28;20040;-68
2022/05/07 10:33:16;;;;;;;11.68;3.20;;;;;;;19.92;41.81;100787.81;5067250;28;20029;-68
2022/05/07 10:35:47;;;;;;;13.65;3.63;;;;;;;19.55;42.52;100775.22;5066938;28;20350;-68
2022/05/07 10:38:26;;;;;;;13.43;3.67;;;;;;;19.56;43.75;100787.47;5085327;28;20036;-68
2022/05/07 10:41:04;;;;;;;14.00;2.88;;;;;;;20.15;42.93;100788.63;5085295;28;20699;-68
2022/05/07 10:43:45;;;;;;;12.30;2.88;;;;;;;20.47;42.37;100791.66;5085167;28;20080;-67
2022/05/07 10:46:16;;;;;;;11.27;3.30;;;;;;;20.72;41.65;100789.72;5084910;28;20017;-68
2022/05/07 10:48:43;;;;;;;10.13;2.95;;;;;;;20.84;41.55;100783.00;5085051;28;20024;-68
2022/05/07 10:51:20;;;;;;;10.02;3.10;;;;;;;21.12;41.05;100792.34;5085092;28;20024;-67
2022/05/07 10:53:46;;;;;;;11.10;3.47;;;;;;;21.22;40.77;100793.59;5084968;28;20028;-67
2022/05/07 10:56:17;;;;;;;13.25;3.10;;;;;;;21.64;40.16;100788.97;5084992;28;20035;-67
2022/05/07 10:58:50;;;;;;;10.75;2.90;;;;;;;21.87;39.20;100788.78;5085101;28;20024;-69
2022/05/07 11:01:17;;;;;;;9.30;2.80;;;;;;;21.18;39.83;100797.31;5084411;28;20110;-67
2022/05/07 11:03:43;;;;;;;11.90;2.90;;;;;;;20.64;40.97;100803.25;5084727;28;20024;-67
2022/05/07 11:06:08;;;;;;;11.73;2.97;;;;;;;20.24;41.69;100809.31;5084507;28;20099;-68
2022/05/07 11:08:46;;;;;;;8.95;3.00;;;;;;;19.90;41.67;100806.31;5084723;28;20024;-68
2022/05/07 11:11:11;;;;;;;8.25;3.20;;;;;;;19.56;42.35;100810.31;5084478;28;20025;-68
2022/05/07 11:13:57;;;;;;;7.75;2.20;;;;;;;19.14;42.00;100819.81;5084420;28;20048;-67
2022/05/07 11:16:24;;;;;;;8.70;2.53;;;;;;;18.60;42.79;100809.47;5083599;28;20047;-68
2022/05/07 11:18:51;;;;;;;10.20;3.35;;;;;;;18.21;43.33;100807.25;5084290;28;20115;-68
2022/05/07 11:21:26;;;;;;;11.27;2.40;;;;;;;17.83;44.37;100814.63;5084361;28;20596;-68
2022/05/07 11:23:55;;;;;;;13.07;2.50;;;;;;;17.44;44.92;100821.09;5083568;28;20036;-68
2022/05/07 11:26:21;;;;;;;11.25;2.40;;;;;;;16.98;45.60;100825.00;5084218;28;20099;-68
2022/05/07 11:28:47;;;;;;;8.48;2.60;;;;;;;16.63;46.59;100820.75;5084009;28;20035;-68
2022/05/07 11:31:24;;;;;;;6.47;2.20;;;;;;;16.45;46.95;100817.72;5083711;28;20020;-67
2022/05/07 11:34:11;;;;;;;8.15;2.40;;;;;;;16.15;47.08;100821.06;5084230;28;20066;-67
2022/05/07 11:36:37;;;;;;;7.90;2.38;;;;;;;15.84;47.84;100814.84;5083748;28;20051;-68
2022/05/07 11:39:05;;;;;;;5.07;2.22;;;;;;;15.58;48.30;100823.28;5084107;28;20075;-68
2022/05/07 11:41:31;;;;;;;6.45;2.00;;;;;;;15.41;48.98;100821.03;5084612;28;20034;-68